Acme, WY

11:56 PM MDT on September 29, 2014 (GMT -0600)
KWYSHERI2 | Change Station
CLOSE
Current Station
Personal Weather Station
Location: Sheridan, WY
Elevation: 3828 ft
Nearby Weather Stations

Elev 3828 ft 44.81 °N, 106.98 °W | Updated 4 minutes ago

Mostly Cloudy
Mostly Cloudy
52.5 °F
Feels Like 52.5 °F
N
0.0
Wind Variable Wind from WNW
Gusts 0.0 mph

Today
High -- | Low -- °F
--% Chance of Precip.
Yesterday
High -- | Low -- °F
Precip. -- in
7:04 AM 6:52 PM
Waxing Crescent, 33% visible
Pressure 29.79 in
Visibility 10.0 miles
Clouds Mostly Cloudy 1000 ft
Dew Point 50 °F
Humidity 90%
Rainfall 0.09 in
Snow Depth 0 in , 0 in , 1 in
UV 0 out of 12
Pollen .90 out of 12
Air Quality Not available.
Flu Activity Not available.
SPECI KSHR 300528Z AUTO 33005KT 10SM BKN010 11/09 A2979 RMK AO2 T01060094

More Conditions Fewer Conditions

Pressure 29.79 in
Visibility 10.0 miles
Clouds Mostly Cloudy 1000 ft
Dew Point 50 °F
Humidity 90%
Rainfall 0.09 in
Snow Depth 0 in , 0 in , 1 in
UV 0 out of 12
Pollen .90 out of 12
Air Quality Not available.
Flu Activity Not available.
SPECI KSHR 300528Z AUTO 33005KT 10SM BKN010 11/09 A2979 RMK AO2 T01060094

More Conditions Fewer Conditions

10-Day Weather Forecast

Almanac

Astronomy

Sep. 29, 2014 Rise Set
Actual Time 7:04 AM MDT 6:52 PM MDT
Civil Twilight 6:34 AM MDT 7:21 PM MDT
Nautical Twilight 6:00 AM MDT 7:55 PM MDT
Astronomical Twilight 5:26 AM MDT 8:30 PM MDT
Moon 12:30 PM MDT (9/29) 10:17 PM MDT (9/29)
Length of Visible Light 12h 46m
Length of Day
11h 48m
Tomorrow will be 3m 5s shorter.
Waxing Crescent, 33% of the Moon is Illuminated
Sep 30
Waxing Crescent
Oct 1
First Quarter
Oct 8
Full
Oct 15
Last Quarter
Oct 23
New

Yesterday's Extremes

State Highs State Lows

Community

WunderPhotos

Upload Photos

1,757,577 photos uploaded!

Nearby

Snow Depth

Station Depth Elevation
East Rim Divide 0 in 7930 ft
Hams Fork 0 in 7840 ft
Crow Creek 1 in 8330 ft
Salt River Summit 1 in 7600 ft
South Brush Creek 0 in 8440 ft

Earthquake Activity

City Distance Mag. Time & Date
No recent earthquake activity has been reported nearby.
Minimum magnitude displayed is 2.5.

Coastal Water Temperatures

Place Temperature
No Stations Reporting

Nearby Weather Stations